sensor_id;sensor_type;location;lat;lon;timestamp;temperature;humidity
53782;DHT22;39692;53.114;7.060;2022-12-07T00:01:14;3.70;99.90
53782;DHT22;39692;53.114;7.060;2022-12-07T00:03:42;3.70;99.90
53782;DHT22;39692;53.114;7.060;2022-12-07T00:06:11;3.70;99.90
53782;DHT22;39692;53.114;7.060;2022-12-07T00:08:37;3.60;99.90
53782;DHT22;39692;53.114;7.060;2022-12-07T00:11:07;3.60;99.90
53782;DHT22;39692;53.114;7.060;2022-12-07T00:13:34;3.50;99.90
53782;DHT22;39692;53.114;7.060;2022-12-07T00:16:06;3.50;99.90
53782;DHT22;39692;53.114;7.060;2022-12-07T00:18:32;3.60;99.90
53782;DHT22;39692;53.114;7.060;2022-12-07T00:21:03;3.60;99.90
53782;DHT22;39692;53.114;7.060;2022-12-07T00:23:29;3.60;99.90
53782;DHT22;39692;53.114;7.060;2022-12-07T00:25:55;3.70;99.90
53782;DHT22;39692;53.114;7.060;2022-12-07T00:28:21;3.80;99.90
53782;DHT22;39692;53.114;7.060;2022-12-07T00:30:47;3.80;99.90
53782;DHT22;39692;53.114;7.060;2022-12-07T00:33:12;3.80;99.90
53782;DHT22;39692;53.114;7.060;2022-12-07T00:35:38;3.90;99.90
53782;DHT22;39692;53.114;7.060;2022-12-07T00:38:04;3.90;99.90
53782;DHT22;39692;53.114;7.060;2022-12-07T00:40:29;3.90;99.90
53782;DHT22;39692;53.114;7.060;2022-12-07T00:42:55;3.90;99.90
53782;DHT22;39692;53.114;7.060;2022-12-07T00:45:20;3.90;99.90
53782;DHT22;39692;53.114;7.060;2022-12-07T00:47:46;3.90;99.90
53782;DHT22;39692;53.114;7.060;2022-12-07T00:50:12;3.90;99.90
53782;DHT22;39692;53.114;7.060;2022-12-07T00:52:37;3.90;99.90
53782;DHT22;39692;53.114;7.060;2022-12-07T00:55:03;4.00;99.90
53782;DHT22;39692;53.114;7.060;2022-12-07T00:57:30;4.00;99.90
53782;DHT22;39692;53.114;7.060;2022-12-07T00:59:56;4.00;99.90
53782;DHT22;39692;53.114;7.060;2022-12-07T01:02:23;4.00;99.90
53782;DHT22;39692;53.114;7.060;2022-12-07T01:04:49;4.10;99.90
53782;DHT22;39692;53.114;7.060;2022-12-07T01:07:15;4.10;99.90
53782;DHT22;39692;53.114;7.060;2022-12-07T01:09:40;4.20;99.90
53782;DHT22;39692;53.114;7.060;2022-12-07T01:12:06;4.30;99.90
53782;DHT22;39692;53.114;7.060;2022-12-07T01:14:32;4.30;99.90
53782;DHT22;39692;53.114;7.060;2022-12-07T01:16:57;4.40;99.90
53782;DHT22;39692;53.114;7.060;2022-12-07T01:19:23;4.40;99.90
53782;DHT22;39692;53.114;7.060;2022-12-07T01:21:49;4.50;99.90
53782;DHT22;39692;53.114;7.060;2022-12-07T01:24:14;4.50;99.90
53782;DHT22;39692;53.114;7.060;2022-12-07T01:26:40;4.50;99.90
53782;DHT22;39692;53.114;7.060;2022-12-07T01:29:06;4.50;99.90
53782;DHT22;39692;53.114;7.060;2022-12-07T01:31:32;4.50;99.90
53782;DHT22;39692;53.114;7.060;2022-12-07T01:33:59;4.50;99.90
53782;DHT22;39692;53.114;7.060;2022-12-07T01:36:33;4.50;99.90
53782;DHT22;39692;53.114;7.060;2022-12-07T01:39:02;4.50;99.90
53782;DHT22;39692;53.114;7.060;2022-12-07T01:41:31;4.50;99.90
53782;DHT22;39692;53.114;7.060;2022-12-07T01:46:58;4.50;99.90
53782;DHT22;39692;53.114;7.060;2022-12-07T01:52:19;4.50;99.90
53782;DHT22;39692;53.114;7.060;2022-12-07T01:54:44;4.50;99.90
53782;DHT22;39692;53.114;7.060;2022-12-07T01:57:11;4.50;99.90
53782;DHT22;39692;53.114;7.060;2022-12-07T02:03:40;4.60;99.90
53782;DHT22;39692;53.114;7.060;2022-12-07T02:06:07;4.50;99.90
53782;DHT22;39692;53.114;7.060;2022-12-07T02:08:33;4.40;99.90
53782;DHT22;39692;53.114;7.060;2022-12-07T02:11:00;4.50;99.90
53782;DHT22;39692;53.114;7.060;2022-12-07T02:13:30;4.50;99.90
53782;DHT22;39692;53.114;7.060;2022-12-07T02:24:14;4.40;99.90
53782;DHT22;39692;53.114;7.060;2022-12-07T02:26:52;4.40;99.90
53782;DHT22;39692;53.114;7.060;2022-12-07T02:29:23;4.40;99.90
53782;DHT22;39692;53.114;7.060;2022-12-07T02:36:57;4.40;99.90
53782;DHT22;39692;53.114;7.060;2022-12-07T02:39:40;4.40;99.90
53782;DHT22;39692;53.114;7.060;2022-12-07T02:42:14;4.40;99.90
53782;DHT22;39692;53.114;7.060;2022-12-07T02:44:41;4.30;99.90
53782;DHT22;39692;53.114;7.060;2022-12-07T02:47:10;4.20;99.90
53782;DHT22;39692;53.114;7.060;2022-12-07T02:49:38;4.20;99.90
53782;DHT22;39692;53.114;7.060;2022-12-07T02:52:05;4.10;99.90
53782;DHT22;39692;53.114;7.060;2022-12-07T02:54:31;4.10;99.90
53782;DHT22;39692;53.114;7.060;2022-12-07T03:00:00;4.00;99.90
53782;DHT22;39692;53.114;7.060;2022-12-07T03:02:38;3.90;99.90
53782;DHT22;39692;53.114;7.060;2022-12-07T03:05:31;3.80;99.90
53782;DHT22;39692;53.114;7.060;2022-12-07T03:10:54;3.70;99.90
53782;DHT22;39692;53.114;7.060;2022-12-07T03:16:33;3.80;99.90
53782;DHT22;39692;53.114;7.060;2022-12-07T03:19:09;3.80;99.90
53782;DHT22;39692;53.114;7.060;2022-12-07T03:21:51;3.80;99.90
53782;DHT22;39692;53.114;7.060;2022-12-07T03:24:21;3.80;99.90
53782;DHT22;39692;53.114;7.060;2022-12-07T03:26:53;3.90;99.90
53782;DHT22;39692;53.114;7.060;2022-12-07T03:29:31;4.00;99.90
53782;DHT22;39692;53.114;7.060;2022-12-07T03:32:14;4.00;99.90
53782;DHT22;39692;53.114;7.060;2022-12-07T03:35:36;4.00;99.90
53782;DHT22;39692;53.114;7.060;2022-12-07T03:42:39;4.10;99.90
53782;DHT22;39692;53.114;7.060;2022-12-07T03:45:06;4.10;99.90
53782;DHT22;39692;53.114;7.060;2022-12-07T03:47:47;4.10;99.90
53782;DHT22;39692;53.114;7.060;2022-12-07T03:53:09;4.10;99.90
53782;DHT22;39692;53.114;7.060;2022-12-07T03:55:39;4.00;99.90
53782;DHT22;39692;53.114;7.060;2022-12-07T03:58:12;3.90;99.90
53782;DHT22;39692;53.114;7.060;2022-12-07T04:00:40;3.90;99.90
53782;DHT22;39692;53.114;7.060;2022-12-07T04:03:06;3.90;99.90
53782;DHT22;39692;53.114;7.060;2022-12-07T04:05:32;3.90;99.90
53782;DHT22;39692;53.114;7.060;2022-12-07T04:07:58;3.80;99.90
53782;DHT22;39692;53.114;7.060;2022-12-07T04:10:23;3.70;99.90
53782;DHT22;39692;53.114;7.060;2022-12-07T04:12:49;3.70;99.90
53782;DHT22;39692;53.114;7.060;2022-12-07T04:15:15;3.70;99.90
53782;DHT22;39692;53.114;7.060;2022-12-07T04:17:40;3.70;99.90
53782;DHT22;39692;53.114;7.060;2022-12-07T04:20:07;3.70;99.90
53782;DHT22;39692;53.114;7.060;2022-12-07T04:22:33;3.70;99.90
53782;DHT22;39692;53.114;7.060;2022-12-07T04:24:58;3.70;99.90
53782;DHT22;39692;53.114;7.060;2022-12-07T04:27:24;3.70;99.90
53782;DHT22;39692;53.114;7.060;2022-12-07T04:29:49;3.60;99.90
53782;DHT22;39692;53.114;7.060;2022-12-07T04:32:15;3.50;99.90
53782;DHT22;39692;53.114;7.060;2022-12-07T04:34:41;3.50;99.90
53782;DHT22;39692;53.114;7.060;2022-12-07T04:37:06;3.50;99.90
53782;DHT22;39692;53.114;7.060;2022-12-07T04:39:33;3.50;99.90
53782;DHT22;39692;53.114;7.060;2022-12-07T04:41:59;3.40;99.90
53782;DHT22;39692;53.114;7.060;2022-12-07T04:44:26;3.30;99.90
53782;DHT22;39692;53.114;7.060;2022-12-07T04:46:52;3.30;99.90
53782;DHT22;39692;53.114;7.060;2022-12-07T04:49:18;3.20;99.90
53782;DHT22;39692;53.114;7.060;2022-12-07T04:51:45;3.20;99.90
53782;DHT22;39692;53.114;7.060;2022-12-07T04:54:11;3.20;99.90
53782;DHT22;39692;53.114;7.060;2022-12-07T04:56:38;3.20;99.90
53782;DHT22;39692;53.114;7.060;2022-12-07T08:56:37;4.90;99.90
53782;DHT22;39692;53.114;7.060;2022-12-07T08:59:04;5.00;99.90
53782;DHT22;39692;53.114;7.060;2022-12-07T09:01:30;5.10;99.90
53782;DHT22;39692;53.114;7.060;2022-12-07T09:03:56;5.10;99.90
53782;DHT22;39692;53.114;7.060;2022-12-07T09:06:22;5.20;99.90
53782;DHT22;39692;53.114;7.060;2022-12-07T09:08:50;5.20;99.90
53782;DHT22;39692;53.114;7.060;2022-12-07T09:11:16;5.10;99.90
53782;DHT22;39692;53.114;7.060;2022-12-07T09:13:42;5.00;99.90
53782;DHT22;39692;53.114;7.060;2022-12-07T09:16:08;4.90;99.90
53782;DHT22;39692;53.114;7.060;2022-12-07T09:18:33;4.80;99.90
53782;DHT22;39692;53.114;7.060;2022-12-07T09:20:59;4.70;99.90
53782;DHT22;39692;53.114;7.060;2022-12-07T09:23:25;4.70;99.90
53782;DHT22;39692;53.114;7.060;2022-12-07T09:25:50;4.80;99.90
53782;DHT22;39692;53.114;7.060;2022-12-07T09:28:16;4.90;99.90
53782;DHT22;39692;53.114;7.060;2022-12-07T09:30:46;5.10;99.90
53782;DHT22;39692;53.114;7.060;2022-12-07T09:33:12;5.40;99.90
53782;DHT22;39692;53.114;7.060;2022-12-07T09:35:43;5.90;99.90
53782;DHT22;39692;53.114;7.060;2022-12-07T09:38:09;6.70;99.90
53782;DHT22;39692;53.114;7.060;2022-12-07T09:40:34;7.20;99.90
53782;DHT22;39692;53.114;7.060;2022-12-07T09:48:03;9.20;99.90
53782;DHT22;39692;53.114;7.060;2022-12-07T09:50:30;10.10;99.90
53782;DHT22;39692;53.114;7.060;2022-12-07T09:53:13;10.40;99.90
53782;DHT22;39692;53.114;7.060;2022-12-07T09:55:41;10.50;99.90
53782;DHT22;39692;53.114;7.060;2022-12-07T09:58:12;10.40;99.90
53782;DHT22;39692;53.114;7.060;2022-12-07T10:00:44;10.30;99.90
53782;DHT22;39692;53.114;7.060;2022-12-07T10:03:11;10.10;99.90
53782;DHT22;39692;53.114;7.060;2022-12-07T10:05:44;9.90;99.90
53782;DHT22;39692;53.114;7.060;2022-12-07T10:10:37;10.00;99.90
53782;DHT22;39692;53.114;7.060;2022-12-07T10:13:11;9.80;99.90
53782;DHT22;39692;53.114;7.060;2022-12-07T10:15:56;9.20;99.90
53782;DHT22;39692;53.114;7.060;2022-12-07T10:18:32;8.70;99.90
53782;DHT22;39692;53.114;7.060;2022-12-07T10:21:15;8.20;99.90
53782;DHT22;39692;53.114;7.060;2022-12-07T10:24:18;7.90;99.90
53782;DHT22;39692;53.114;7.060;2022-12-07T10:26:53;8.00;99.90
53782;DHT22;39692;53.114;7.060;2022-12-07T10:29:27;8.40;99.90
53782;DHT22;39692;53.114;7.060;2022-12-07T10:31:59;8.80;99.90
53782;DHT22;39692;53.114;7.060;2022-12-07T10:34:33;9.20;99.90
53782;DHT22;39692;53.114;7.060;2022-12-07T10:39:41;9.40;99.90
53782;DHT22;39692;53.114;7.060;2022-12-07T10:42:19;9.10;99.90
53782;DHT22;39692;53.114;7.060;2022-12-07T10:44:46;9.00;99.90
53782;DHT22;39692;53.114;7.060;2022-12-07T10:47:51;9.10;99.90
53782;DHT22;39692;53.114;7.060;2022-12-07T10:54:02;9.20;99.90
53782;DHT22;39692;53.114;7.060;2022-12-07T11:05:27;8.90;99.90
53782;DHT22;39692;53.114;7.060;2022-12-07T11:08:21;9.10;99.90
53782;DHT22;39692;53.114;7.060;2022-12-07T11:10:58;9.40;99.90
53782;DHT22;39692;53.114;7.060;2022-12-07T11:16:19;10.40;99.90
53782;DHT22;39692;53.114;7.060;2022-12-07T11:27:47;13.20;99.90
53782;DHT22;39692;53.114;7.060;2022-12-07T11:30:19;14.00;99.90
53782;DHT22;39692;53.114;7.060;2022-12-07T11:35:34;14.20;99.90
53782;DHT22;39692;53.114;7.060;2022-12-07T11:38:13;13.80;99.90
53782;DHT22;39692;53.114;7.060;2022-12-07T11:40:43;13.40;99.90
53782;DHT22;39692;53.114;7.060;2022-12-07T11:43:23;13.40;99.90
53782;DHT22;39692;53.114;7.060;2022-12-07T11:46:09;13.30;99.90
53782;DHT22;39692;53.114;7.060;2022-12-07T11:48:54;13.40;94.20
53782;DHT22;39692;53.114;7.060;2022-12-07T11:51:24;13.50;99.00
53782;DHT22;39692;53.114;7.060;2022-12-07T11:54:21;13.60;97.50
53782;DHT22;39692;53.114;7.060;2022-12-07T11:56:49;13.90;98.10
53782;DHT22;39692;53.114;7.060;2022-12-07T11:59:22;14.30;93.90
53782;DHT22;39692;53.114;7.060;2022-12-07T12:02:55;14.40;90.80
53782;DHT22;39692;53.114;7.060;2022-12-07T12:05:21;14.40;84.40
53782;DHT22;39692;53.114;7.060;2022-12-07T12:33:46;8.20;99.90
53782;DHT22;39692;53.114;7.060;2022-12-07T12:44:02;7.20;99.90
53782;DHT22;39692;53.114;7.060;2022-12-07T13:02:55;9.00;99.90
53782;DHT22;39692;53.114;7.060;2022-12-07T13:05:23;9.70;99.90
53782;DHT22;39692;53.114;7.060;2022-12-07T13:07:54;9.70;99.90
53782;DHT22;39692;53.114;7.060;2022-12-07T13:15:53;10.20;99.90
53782;DHT22;39692;53.114;7.060;2022-12-07T13:44:23;6.80;99.90
53782;DHT22;39692;53.114;7.060;2022-12-07T19:32:02;3.50;99.90
53782;DHT22;39692;53.114;7.060;2022-12-07T19:34:28;3.40;99.90
53782;DHT22;39692;53.114;7.060;2022-12-07T19:36:53;3.40;99.90
53782;DHT22;39692;53.114;7.060;2022-12-07T19:39:19;3.40;99.90
53782;DHT22;39692;53.114;7.060;2022-12-07T19:41:45;3.40;99.90
53782;DHT22;39692;53.114;7.060;2022-12-07T19:44:16;3.30;99.90
53782;DHT22;39692;53.114;7.060;2022-12-07T19:46:44;3.40;99.90
53782;DHT22;39692;53.114;7.060;2022-12-07T19:49:11;3.40;99.90
53782;DHT22;39692;53.114;7.060;2022-12-07T19:51:45;3.30;99.90
53782;DHT22;39692;53.114;7.060;2022-12-07T19:54:12;3.30;99.90
53782;DHT22;39692;53.114;7.060;2022-12-07T19:56:39;3.30;99.90
53782;DHT22;39692;53.114;7.060;2022-12-07T19:59:05;3.30;99.90
53782;DHT22;39692;53.114;7.060;2022-12-07T20:01:32;3.30;99.90
53782;DHT22;39692;53.114;7.060;2022-12-07T20:03:58;3.30;99.90
53782;DHT22;39692;53.114;7.060;2022-12-07T20:06:24;3.30;99.90
53782;DHT22;39692;53.114;7.060;2022-12-07T20:08:50;3.30;99.90
53782;DHT22;39692;53.114;7.060;2022-12-07T20:11:18;3.30;99.90
53782;DHT22;39692;53.114;7.060;2022-12-07T20:14:05;3.40;99.90
53782;DHT22;39692;53.114;7.060;2022-12-07T20:16:32;3.30;99.90
53782;DHT22;39692;53.114;7.060;2022-12-07T20:18:58;3.30;99.90
53782;DHT22;39692;53.114;7.060;2022-12-07T20:21:24;3.30;99.90
53782;DHT22;39692;53.114;7.060;2022-12-07T20:23:50;3.30;99.90
53782;DHT22;39692;53.114;7.060;2022-12-07T20:26:16;3.30;99.90
53782;DHT22;39692;53.114;7.060;2022-12-07T20:28:42;3.20;99.90
53782;DHT22;39692;53.114;7.060;2022-12-07T20:31:14;3.20;99.90
53782;DHT22;39692;53.114;7.060;2022-12-07T20:33:40;3.20;99.90
53782;DHT22;39692;53.114;7.060;2022-12-07T20:36:07;3.20;99.90
53782;DHT22;39692;53.114;7.060;2022-12-07T20:38:34;3.20;99.90
53782;DHT22;39692;53.114;7.060;2022-12-07T20:41:02;3.20;99.90
53782;DHT22;39692;53.114;7.060;2022-12-07T20:43:28;3.20;99.90
53782;DHT22;39692;53.114;7.060;2022-12-07T20:45:55;3.20;99.90
53782;DHT22;39692;53.114;7.060;2022-12-07T20:48:21;3.20;99.90
53782;DHT22;39692;53.114;7.060;2022-12-07T20:50:47;3.20;99.90
53782;DHT22;39692;53.114;7.060;2022-12-07T20:53:13;3.10;99.90
53782;DHT22;39692;53.114;7.060;2022-12-07T20:55:38;3.10;99.90
53782;DHT22;39692;53.114;7.060;2022-12-07T20:58:05;3.10;99.90
53782;DHT22;39692;53.114;7.060;2022-12-07T21:00:31;3.10;99.90
53782;DHT22;39692;53.114;7.060;2022-12-07T21:02:57;3.00;99.90
53782;DHT22;39692;53.114;7.060;2022-12-07T21:05:23;3.00;99.90
53782;DHT22;39692;53.114;7.060;2022-12-07T21:07:49;3.00;99.90
53782;DHT22;39692;53.114;7.060;2022-12-07T21:10:15;2.90;99.90
53782;DHT22;39692;53.114;7.060;2022-12-07T21:12:41;2.90;99.90
53782;DHT22;39692;53.114;7.060;2022-12-07T21:15:07;2.90;99.90
53782;DHT22;39692;53.114;7.060;2022-12-07T21:17:33;2.80;99.90
53782;DHT22;39692;53.114;7.060;2022-12-07T21:19:59;2.80;99.90
53782;DHT22;39692;53.114;7.060;2022-12-07T21:22:25;2.80;99.90
53782;DHT22;39692;53.114;7.060;2022-12-07T21:24:51;2.80;99.90
53782;DHT22;39692;53.114;7.060;2022-12-07T21:27:16;2.80;99.90
53782;DHT22;39692;53.114;7.060;2022-12-07T21:29:42;2.80;99.90
53782;DHT22;39692;53.114;7.060;2022-12-07T21:32:08;2.80;99.90
53782;DHT22;39692;53.114;7.060;2022-12-07T21:34:34;2.80;99.90
53782;DHT22;39692;53.114;7.060;2022-12-07T21:37:00;2.90;99.90
53782;DHT22;39692;53.114;7.060;2022-12-07T21:39:26;2.90;99.90
53782;DHT22;39692;53.114;7.060;2022-12-07T21:41:51;2.90;99.90
53782;DHT22;39692;53.114;7.060;2022-12-07T21:44:17;2.90;99.90
53782;DHT22;39692;53.114;7.060;2022-12-07T21:46:43;3.00;99.90
53782;DHT22;39692;53.114;7.060;2022-12-07T21:49:13;3.00;99.90
53782;DHT22;39692;53.114;7.060;2022-12-07T21:51:41;3.00;99.90
53782;DHT22;39692;53.114;7.060;2022-12-07T21:54:08;3.10;99.90
53782;DHT22;39692;53.114;7.060;2022-12-07T21:56:39;3.20;99.90
53782;DHT22;39692;53.114;7.060;2022-12-07T21:59:14;3.20;99.90
53782;DHT22;39692;53.114;7.060;2022-12-07T22:01:41;3.20;99.90
53782;DHT22;39692;53.114;7.060;2022-12-07T22:04:24;3.10;99.90
53782;DHT22;39692;53.114;7.060;2022-12-07T22:06:50;3.10;99.90
53782;DHT22;39692;53.114;7.060;2022-12-07T22:09:16;3.00;99.90
53782;DHT22;39692;53.114;7.060;2022-12-07T22:11:48;3.00;99.90
53782;DHT22;39692;53.114;7.060;2022-12-07T22:14:14;2.90;99.90
53782;DHT22;39692;53.114;7.060;2022-12-07T22:16:58;2.90;99.90
53782;DHT22;39692;53.114;7.060;2022-12-07T22:19:25;2.80;99.90
53782;DHT22;39692;53.114;7.060;2022-12-07T22:21:50;2.80;99.90
53782;DHT22;39692;53.114;7.060;2022-12-07T22:24:16;2.80;99.90
53782;DHT22;39692;53.114;7.060;2022-12-07T22:26:42;2.80;99.90
53782;DHT22;39692;53.114;7.060;2022-12-07T22:29:08;2.80;99.90
53782;DHT22;39692;53.114;7.060;2022-12-07T22:31:34;2.70;99.90
53782;DHT22;39692;53.114;7.060;2022-12-07T22:34:00;2.80;99.90
53782;DHT22;39692;53.114;7.060;2022-12-07T22:36:25;2.80;99.90
53782;DHT22;39692;53.114;7.060;2022-12-07T22:38:52;2.70;99.90
53782;DHT22;39692;53.114;7.060;2022-12-07T22:41:26;2.60;99.90
53782;DHT22;39692;53.114;7.060;2022-12-07T22:43:53;2.60;99.90
53782;DHT22;39692;53.114;7.060;2022-12-07T22:46:19;2.60;99.90
53782;DHT22;39692;53.114;7.060;2022-12-07T22:48:45;2.60;99.90
53782;DHT22;39692;53.114;7.060;2022-12-07T22:51:28;2.60;99.90
53782;DHT22;39692;53.114;7.060;2022-12-07T22:53:55;2.60;99.90
53782;DHT22;39692;53.114;7.060;2022-12-07T22:56:21;2.60;99.90
53782;DHT22;39692;53.114;7.060;2022-12-07T22:58:47;2.60;99.90
53782;DHT22;39692;53.114;7.060;2022-12-07T23:01:15;2.60;99.90
53782;DHT22;39692;53.114;7.060;2022-12-07T23:03:41;2.60;99.90
53782;DHT22;39692;53.114;7.060;2022-12-07T23:06:09;2.70;99.90
53782;DHT22;39692;53.114;7.060;2022-12-07T23:08:36;2.70;99.90
53782;DHT22;39692;53.114;7.060;2022-12-07T23:11:03;2.80;99.90
53782;DHT22;39692;53.114;7.060;2022-12-07T23:13:29;2.80;99.90
53782;DHT22;39692;53.114;7.060;2022-12-07T23:15:59;2.90;99.90
53782;DHT22;39692;53.114;7.060;2022-12-07T23:18:24;2.90;99.90
53782;DHT22;39692;53.114;7.060;2022-12-07T23:20:50;3.00;99.90
53782;DHT22;39692;53.114;7.060;2022-12-07T23:23:16;3.00;99.90
53782;DHT22;39692;53.114;7.060;2022-12-07T23:25:42;3.00;99.90
53782;DHT22;39692;53.114;7.060;2022-12-07T23:28:07;3.00;99.90
53782;DHT22;39692;53.114;7.060;2022-12-07T23:30:33;3.00;99.90
53782;DHT22;39692;53.114;7.060;2022-12-07T23:32:59;3.00;99.90
53782;DHT22;39692;53.114;7.060;2022-12-07T23:35:24;3.00;99.90
53782;DHT22;39692;53.114;7.060;2022-12-07T23:37:50;2.90;99.90
53782;DHT22;39692;53.114;7.060;2022-12-07T23:40:15;2.80;99.90
53782;DHT22;39692;53.114;7.060;2022-12-07T23:42:41;2.70;99.90
53782;DHT22;39692;53.114;7.060;2022-12-07T23:45:07;2.70;99.90
53782;DHT22;39692;53.114;7.060;2022-12-07T23:47:33;2.60;99.90
53782;DHT22;39692;53.114;7.060;2022-12-07T23:49:58;2.50;99.90
53782;DHT22;39692;53.114;7.060;2022-12-07T23:52:24;2.40;99.90
53782;DHT22;39692;53.114;7.060;2022-12-07T23:54:49;2.40;99.90
53782;DHT22;39692;53.114;7.060;2022-12-07T23:57:15;2.40;99.90
53782;DHT22;39692;53.114;7.060;2022-12-07T23:59:41;2.40;99.90
